sensor_id;sensor_type;location;lat;lon;timestamp;temperature;humidity
76785;SHT30;66893;44.316;0.092;2023-09-18T00:00:47;25.61;63.11
76785;SHT30;66893;44.316;0.092;2023-09-18T00:03:18;25.58;63.04
76785;SHT30;66893;44.316;0.092;2023-09-18T00:05:45;25.58;63.07
76785;SHT30;66893;44.316;0.092;2023-09-18T00:08:11;25.56;63.04
76785;SHT30;66893;44.316;0.092;2023-09-18T00:10:37;25.58;63.03
76785;SHT30;66893;44.316;0.092;2023-09-18T00:13:02;25.53;63.06
76785;SHT30;66893;44.316;0.092;2023-09-18T00:15:28;25.52;62.98
76785;SHT30;66893;44.316;0.092;2023-09-18T00:17:53;25.53;63.00
76785;SHT30;66893;44.316;0.092;2023-09-18T00:20:19;25.50;62.99
76785;SHT30;66893;44.316;0.092;2023-09-18T00:22:45;25.50;62.91
76785;SHT30;66893;44.316;0.092;2023-09-18T00:25:11;25.50;62.90
76785;SHT30;66893;44.316;0.092;2023-09-18T00:27:36;25.52;62.89
76785;SHT30;66893;44.316;0.092;2023-09-18T00:30:04;25.52;62.87
76785;SHT30;66893;44.316;0.092;2023-09-18T00:32:31;25.49;62.85
76785;SHT30;66893;44.316;0.092;2023-09-18T00:34:56;25.46;62.83
76785;SHT30;66893;44.316;0.092;2023-09-18T00:37:22;25.46;62.81
76785;SHT30;66893;44.316;0.092;2023-09-18T00:39:49;25.46;62.79
76785;SHT30;66893;44.316;0.092;2023-09-18T00:42:15;25.42;62.81
76785;SHT30;66893;44.316;0.092;2023-09-18T00:44:43;25.42;62.75
76785;SHT30;66893;44.316;0.092;2023-09-18T00:47:08;25.41;62.76
76785;SHT30;66893;44.316;0.092;2023-09-18T00:49:36;25.39;62.73
76785;SHT30;66893;44.316;0.092;2023-09-18T00:52:03;25.41;62.67
76785;SHT30;66893;44.316;0.092;2023-09-18T00:54:29;25.39;62.61
76785;SHT30;66893;44.316;0.092;2023-09-18T00:56:57;25.38;62.64
76785;SHT30;66893;44.316;0.092;2023-09-18T00:59:23;25.36;62.62
76785;SHT30;66893;44.316;0.092;2023-09-18T01:01:48;25.36;62.62
76785;SHT30;66893;44.316;0.092;2023-09-18T01:04:16;25.34;62.57
76785;SHT30;66893;44.316;0.092;2023-09-18T01:06:42;25.31;62.56
76785;SHT30;66893;44.316;0.092;2023-09-18T01:09:08;25.34;62.54
76785;SHT30;66893;44.316;0.092;2023-09-18T01:17:20;25.28;62.42
76785;SHT30;66893;44.316;0.092;2023-09-18T01:19:47;25.25;62.44
76785;SHT30;66893;44.316;0.092;2023-09-18T01:22:14;25.25;62.41
76785;SHT30;66893;44.316;0.092;2023-09-18T01:24:41;25.22;62.36
76785;SHT30;66893;44.316;0.092;2023-09-18T01:27:11;25.24;62.35
76785;SHT30;66893;44.316;0.092;2023-09-18T01:29:38;25.22;62.30
76785;SHT30;66893;44.316;0.092;2023-09-18T01:32:04;25.18;62.31
76785;SHT30;66893;44.316;0.092;2023-09-18T01:34:33;25.22;62.29
76785;SHT30;66893;44.316;0.092;2023-09-18T01:36:59;25.17;62.18
76785;SHT30;66893;44.316;0.092;2023-09-18T01:39:27;25.17;62.19
76785;SHT30;66893;44.316;0.092;2023-09-18T01:41:58;25.17;62.13
76785;SHT30;66893;44.316;0.092;2023-09-18T01:44:23;25.15;62.12
76785;SHT30;66893;44.316;0.092;2023-09-18T01:46:49;25.12;62.11
76785;SHT30;66893;44.316;0.092;2023-09-18T01:49:20;25.15;62.07
76785;SHT30;66893;44.316;0.092;2023-09-18T01:51:51;25.12;62.06
76785;SHT30;66893;44.316;0.092;2023-09-18T01:54:17;25.14;61.99
76785;SHT30;66893;44.316;0.092;2023-09-18T01:56:42;25.08;61.98
76785;SHT30;66893;44.316;0.092;2023-09-18T01:59:07;25.08;61.96
76785;SHT30;66893;44.316;0.092;2023-09-18T02:01:33;25.08;61.92
76785;SHT30;66893;44.316;0.092;2023-09-18T02:04:00;25.06;61.94
76785;SHT30;66893;44.316;0.092;2023-09-18T02:06:25;25.06;61.91
76785;SHT30;66893;44.316;0.092;2023-09-18T02:08:51;25.03;61.86
76785;SHT30;66893;44.316;0.092;2023-09-18T02:11:16;25.04;61.84
76785;SHT30;66893;44.316;0.092;2023-09-18T02:13:41;25.03;61.82
76785;SHT30;66893;44.316;0.092;2023-09-18T02:16:07;25.03;61.80
76785;SHT30;66893;44.316;0.092;2023-09-18T02:18:32;24.97;61.74
76785;SHT30;66893;44.316;0.092;2023-09-18T02:20:58;24.98;61.74
76785;SHT30;66893;44.316;0.092;2023-09-18T02:23:23;24.97;61.70
76785;SHT30;66893;44.316;0.092;2023-09-18T02:25:58;24.94;61.71
76785;SHT30;66893;44.316;0.092;2023-09-18T02:28:23;24.94;61.64
76785;SHT30;66893;44.316;0.092;2023-09-18T02:30:49;24.94;61.62
76785;SHT30;66893;44.316;0.092;2023-09-18T02:33:15;24.91;61.62
76785;SHT30;66893;44.316;0.092;2023-09-18T02:35:41;24.90;61.53
76785;SHT30;66893;44.316;0.092;2023-09-18T02:38:08;24.90;61.52
76785;SHT30;66893;44.316;0.092;2023-09-18T02:40:33;24.88;61.48
76785;SHT30;66893;44.316;0.092;2023-09-18T02:42:59;24.86;61.48
76785;SHT30;66893;44.316;0.092;2023-09-18T02:45:24;24.87;61.44
76785;SHT30;66893;44.316;0.092;2023-09-18T02:47:50;24.84;61.47
76785;SHT30;66893;44.316;0.092;2023-09-18T02:50:15;24.84;61.37
76785;SHT30;66893;44.316;0.092;2023-09-18T02:52:40;24.87;61.35
76785;SHT30;66893;44.316;0.092;2023-09-18T02:55:06;24.83;61.34
76785;SHT30;66893;44.316;0.092;2023-09-18T02:57:32;24.80;61.32
76785;SHT30;66893;44.316;0.092;2023-09-18T02:59:57;24.80;61.34
76785;SHT30;66893;44.316;0.092;2023-09-18T03:02:23;24.79;61.28
76785;SHT30;66893;44.316;0.092;2023-09-18T03:04:49;24.79;61.27
76785;SHT30;66893;44.316;0.092;2023-09-18T03:07:14;24.76;61.26
76785;SHT30;66893;44.316;0.092;2023-09-18T03:09:41;24.76;61.25
76785;SHT30;66893;44.316;0.092;2023-09-18T03:12:07;24.73;61.22
76785;SHT30;66893;44.316;0.092;2023-09-18T03:14:33;24.76;61.18
76785;SHT30;66893;44.316;0.092;2023-09-18T03:16:59;24.73;61.16
76785;SHT30;66893;44.316;0.092;2023-09-18T03:19:25;24.73;61.14
76785;SHT30;66893;44.316;0.092;2023-09-18T03:21:52;24.72;61.11
76785;SHT30;66893;44.316;0.092;2023-09-18T03:24:17;24.70;61.08
76785;SHT30;66893;44.316;0.092;2023-09-18T03:26:43;24.69;61.07
76785;SHT30;66893;44.316;0.092;2023-09-18T03:29:09;24.66;61.07
76785;SHT30;66893;44.316;0.092;2023-09-18T03:31:34;24.64;61.05
76785;SHT30;66893;44.316;0.092;2023-09-18T03:34:00;24.66;61.04
76785;SHT30;66893;44.316;0.092;2023-09-18T03:36:25;24.66;60.99
76785;SHT30;66893;44.316;0.092;2023-09-18T03:38:50;24.64;60.98
76785;SHT30;66893;44.316;0.092;2023-09-18T03:41:16;24.63;60.98
76785;SHT30;66893;44.316;0.092;2023-09-18T03:43:41;24.62;60.93
76785;SHT30;66893;44.316;0.092;2023-09-18T03:46:07;24.59;60.94
76785;SHT30;66893;44.316;0.092;2023-09-18T03:48:33;24.56;60.91
76785;SHT30;66893;44.316;0.092;2023-09-18T03:51:05;24.60;60.87
76785;SHT30;66893;44.316;0.092;2023-09-18T03:53:41;24.57;60.82
76785;SHT30;66893;44.316;0.092;2023-09-18T03:56:06;24.56;60.79
76785;SHT30;66893;44.316;0.092;2023-09-18T03:58:31;24.55;60.80
76785;SHT30;66893;44.316;0.092;2023-09-18T04:00:57;24.55;60.77
76785;SHT30;66893;44.316;0.092;2023-09-18T04:03:23;24.52;60.79
76785;SHT30;66893;44.316;0.092;2023-09-18T04:05:48;24.52;60.73
76785;SHT30;66893;44.316;0.092;2023-09-18T04:08:13;24.52;60.71
76785;SHT30;66893;44.316;0.092;2023-09-18T04:10:39;24.52;60.75
76785;SHT30;66893;44.316;0.092;2023-09-18T04:13:04;24.49;60.74
76785;SHT30;66893;44.316;0.092;2023-09-18T04:15:30;24.48;60.70
76785;SHT30;66893;44.316;0.092;2023-09-18T04:17:58;24.46;60.67
76785;SHT30;66893;44.316;0.092;2023-09-18T04:20:24;24.46;60.73
76785;SHT30;66893;44.316;0.092;2023-09-18T04:23:27;24.46;60.68
76785;SHT30;66893;44.316;0.092;2023-09-18T04:25:53;24.43;60.65
76785;SHT30;66893;44.316;0.092;2023-09-18T04:28:21;24.42;60.63
76785;SHT30;66893;44.316;0.092;2023-09-18T04:30:46;24.42;60.66
76785;SHT30;66893;44.316;0.092;2023-09-18T04:33:13;24.43;60.63
76785;SHT30;66893;44.316;0.092;2023-09-18T04:35:39;24.40;60.67
76785;SHT30;66893;44.316;0.092;2023-09-18T04:38:06;24.40;60.61
76785;SHT30;66893;44.316;0.092;2023-09-18T04:40:32;24.40;60.64
76785;SHT30;66893;44.316;0.092;2023-09-18T04:43:01;24.39;60.62
76785;SHT30;66893;44.316;0.092;2023-09-18T04:45:27;24.40;60.61
76785;SHT30;66893;44.316;0.092;2023-09-18T04:47:56;24.36;60.61
76785;SHT30;66893;44.316;0.092;2023-09-18T04:50:21;24.35;60.62
76785;SHT30;66893;44.316;0.092;2023-09-18T04:52:47;24.33;60.64
76785;SHT30;66893;44.316;0.092;2023-09-18T04:55:13;24.35;60.62
76785;SHT30;66893;44.316;0.092;2023-09-18T04:57:38;24.35;60.64
76785;SHT30;66893;44.316;0.092;2023-09-18T05:00:05;24.35;60.64
76785;SHT30;66893;44.316;0.092;2023-09-18T05:02:33;24.33;60.60
76785;SHT30;66893;44.316;0.092;2023-09-18T05:05:00;24.33;60.60
76785;SHT30;66893;44.316;0.092;2023-09-18T05:07:26;24.32;60.58
76785;SHT30;66893;44.316;0.092;2023-09-18T05:09:52;24.32;60.61
76785;SHT30;66893;44.316;0.092;2023-09-18T05:12:17;24.30;60.56
76785;SHT30;66893;44.316;0.092;2023-09-18T05:14:44;24.29;60.58
76785;SHT30;66893;44.316;0.092;2023-09-18T05:17:16;24.29;60.59
76785;SHT30;66893;44.316;0.092;2023-09-18T05:19:42;24.26;60.60
76785;SHT30;66893;44.316;0.092;2023-09-18T05:22:08;24.26;60.57
76785;SHT30;66893;44.316;0.092;2023-09-18T05:24:35;24.30;60.60
76785;SHT30;66893;44.316;0.092;2023-09-18T05:27:01;24.28;60.61
76785;SHT30;66893;44.316;0.092;2023-09-18T05:29:28;24.26;60.56
76785;SHT30;66893;44.316;0.092;2023-09-18T05:31:53;24.25;60.55
76785;SHT30;66893;44.316;0.092;2023-09-18T05:34:18;24.25;60.57
76785;SHT30;66893;44.316;0.092;2023-09-18T05:36:44;24.25;60.53
76785;SHT30;66893;44.316;0.092;2023-09-18T05:39:09;24.24;60.56
76785;SHT30;66893;44.316;0.092;2023-09-18T05:41:38;24.25;60.56
76785;SHT30;66893;44.316;0.092;2023-09-18T05:44:04;24.25;60.53
76785;SHT30;66893;44.316;0.092;2023-09-18T05:46:30;24.19;60.51
76785;SHT30;66893;44.316;0.092;2023-09-18T05:48:56;24.21;60.51
76785;SHT30;66893;44.316;0.092;2023-09-18T05:51:22;24.21;60.50
76785;SHT30;66893;44.316;0.092;2023-09-18T05:53:48;24.19;60.49
76785;SHT30;66893;44.316;0.092;2023-09-18T05:56:14;24.19;60.47
76785;SHT30;66893;44.316;0.092;2023-09-18T05:58:42;24.18;60.48
76785;SHT30;66893;44.316;0.092;2023-09-18T06:01:07;24.21;60.45
76785;SHT30;66893;44.316;0.092;2023-09-18T06:03:33;24.19;60.45
76785;SHT30;66893;44.316;0.092;2023-09-18T06:06:02;24.19;60.44
76785;SHT30;66893;44.316;0.092;2023-09-18T06:08:28;24.19;60.43
76785;SHT30;66893;44.316;0.092;2023-09-18T06:10:55;24.18;60.40
76785;SHT30;66893;44.316;0.092;2023-09-18T06:13:21;24.18;60.42
76785;SHT30;66893;44.316;0.092;2023-09-18T06:15:47;24.17;60.39
76785;SHT30;66893;44.316;0.092;2023-09-18T06:18:13;24.17;60.39
76785;SHT30;66893;44.316;0.092;2023-09-18T06:20:39;24.18;60.38
76785;SHT30;66893;44.316;0.092;2023-09-18T06:23:05;24.17;60.39
76785;SHT30;66893;44.316;0.092;2023-09-18T06:25:30;24.17;60.37
76785;SHT30;66893;44.316;0.092;2023-09-18T06:27:57;24.18;60.30
76785;SHT30;66893;44.316;0.092;2023-09-18T06:30:22;24.04;60.09
76785;SHT30;66893;44.316;0.092;2023-09-18T06:32:48;23.91;60.08
76785;SHT30;66893;44.316;0.092;2023-09-18T06:35:13;23.74;60.09
76785;SHT30;66893;44.316;0.092;2023-09-18T06:37:39;23.57;60.20
76785;SHT30;66893;44.316;0.092;2023-09-18T06:40:05;23.45;60.33
76785;SHT30;66893;44.316;0.092;2023-09-18T06:42:31;23.26;60.50
76785;SHT30;66893;44.316;0.092;2023-09-18T06:44:57;23.14;60.64
76785;SHT30;66893;44.316;0.092;2023-09-18T06:47:26;22.95;60.81
76785;SHT30;66893;44.316;0.092;2023-09-18T06:49:51;22.84;61.08
76785;SHT30;66893;44.316;0.092;2023-09-18T06:52:17;22.72;61.22
76785;SHT30;66893;44.316;0.092;2023-09-18T06:54:42;22.68;61.40
76785;SHT30;66893;44.316;0.092;2023-09-18T06:57:09;22.63;61.55
76785;SHT30;66893;44.316;0.092;2023-09-18T06:59:35;22.63;61.68
76785;SHT30;66893;44.316;0.092;2023-09-18T07:02:01;22.59;61.79
76785;SHT30;66893;44.316;0.092;2023-09-18T07:04:27;22.57;61.91
76785;SHT30;66893;44.316;0.092;2023-09-18T07:06:53;22.57;62.17
76785;SHT30;66893;44.316;0.092;2023-09-18T07:09:19;22.52;62.25
76785;SHT30;66893;44.316;0.092;2023-09-18T07:11:49;22.52;62.58
76785;SHT30;66893;44.316;0.092;2023-09-18T07:14:15;22.50;62.54
76785;SHT30;66893;44.316;0.092;2023-09-18T07:16:43;22.52;62.66
76785;SHT30;66893;44.316;0.092;2023-09-18T07:19:08;22.50;62.84
76785;SHT30;66893;44.316;0.092;2023-09-18T07:21:37;22.49;62.85
76785;SHT30;66893;44.316;0.092;2023-09-18T07:24:04;22.47;62.96
76785;SHT30;66893;44.316;0.092;2023-09-18T07:26:29;22.47;63.24
76785;SHT30;66893;44.316;0.092;2023-09-18T07:28:54;22.52;63.13
76785;SHT30;66893;44.316;0.092;2023-09-18T07:31:20;22.49;63.12
76785;SHT30;66893;44.316;0.092;2023-09-18T07:33:45;22.46;63.34
76785;SHT30;66893;44.316;0.092;2023-09-18T07:36:11;22.44;63.68
76785;SHT30;66893;44.316;0.092;2023-09-18T07:38:37;22.43;63.53
76785;SHT30;66893;44.316;0.092;2023-09-18T07:41:08;22.43;63.62
76785;SHT30;66893;44.316;0.092;2023-09-18T07:43:33;22.42;63.74
76785;SHT30;66893;44.316;0.092;2023-09-18T07:45:59;22.44;63.85
76785;SHT30;66893;44.316;0.092;2023-09-18T07:48:27;22.47;63.89
76785;SHT30;66893;44.316;0.092;2023-09-18T07:50:52;22.50;63.94
76785;SHT30;66893;44.316;0.092;2023-09-18T07:53:19;22.53;64.07
76785;SHT30;66893;44.316;0.092;2023-09-18T07:55:45;22.54;64.04
76785;SHT30;66893;44.316;0.092;2023-09-18T07:58:10;22.57;64.11
76785;SHT30;66893;44.316;0.092;2023-09-18T08:00:36;22.59;64.03
76785;SHT30;66893;44.316;0.092;2023-09-18T08:03:02;22.61;64.02
76785;SHT30;66893;44.316;0.092;2023-09-18T08:05:28;22.68;64.13
76785;SHT30;66893;44.316;0.092;2023-09-18T08:07:55;22.70;64.19
76785;SHT30;66893;44.316;0.092;2023-09-18T08:10:25;22.74;64.56
76785;SHT30;66893;44.316;0.092;2023-09-18T08:12:51;22.81;64.38
76785;SHT30;66893;44.316;0.092;2023-09-18T08:15:21;22.87;64.43
76785;SHT30;66893;44.316;0.092;2023-09-18T08:17:47;22.95;64.32
76785;SHT30;66893;44.316;0.092;2023-09-18T08:20:15;22.99;64.22
76785;SHT30;66893;44.316;0.092;2023-09-18T08:22:41;23.02;64.35
76785;SHT30;66893;44.316;0.092;2023-09-18T08:25:07;23.09;64.39
76785;SHT30;66893;44.316;0.092;2023-09-18T08:27:40;23.18;64.31
76785;SHT30;66893;44.316;0.092;2023-09-18T08:30:07;23.20;64.14
76785;SHT30;66893;44.316;0.092;2023-09-18T08:32:35;23.23;64.30
76785;SHT30;66893;44.316;0.092;2023-09-18T08:35:00;23.26;64.16
76785;SHT30;66893;44.316;0.092;2023-09-18T08:37:27;23.32;64.10
76785;SHT30;66893;44.316;0.092;2023-09-18T08:39:53;23.39;64.07
76785;SHT30;66893;44.316;0.092;2023-09-18T08:42:20;23.47;64.07
76785;SHT30;66893;44.316;0.092;2023-09-18T08:44:48;23.56;64.06
76785;SHT30;66893;44.316;0.092;2023-09-18T08:47:14;23.63;64.07
76785;SHT30;66893;44.316;0.092;2023-09-18T08:49:41;23.67;63.86
76785;SHT30;66893;44.316;0.092;2023-09-18T08:52:08;23.74;63.75
76785;SHT30;66893;44.316;0.092;2023-09-18T08:54:34;23.78;63.71
76785;SHT30;66893;44.316;0.092;2023-09-18T08:57:00;23.88;63.74
76785;SHT30;66893;44.316;0.092;2023-09-18T08:59:27;23.91;63.71
76785;SHT30;66893;44.316;0.092;2023-09-18T09:01:54;23.96;63.64
76785;SHT30;66893;44.316;0.092;2023-09-18T09:04:19;24.02;63.64
76785;SHT30;66893;44.316;0.092;2023-09-18T09:06:46;24.05;63.40
76785;SHT30;66893;44.316;0.092;2023-09-18T09:09:12;24.09;63.35
76785;SHT30;66893;44.316;0.092;2023-09-18T09:11:38;24.17;63.38
76785;SHT30;66893;44.316;0.092;2023-09-18T09:14:14;24.25;63.05
76785;SHT30;66893;44.316;0.092;2023-09-18T09:16:54;24.29;62.87
76785;SHT30;66893;44.316;0.092;2023-09-18T09:19:33;24.36;62.51
76785;SHT30;66893;44.316;0.092;2023-09-18T09:22:00;24.46;62.34
76785;SHT30;66893;44.316;0.092;2023-09-18T09:27:02;24.55;61.51
76785;SHT30;66893;44.316;0.092;2023-09-18T09:29:28;24.57;61.27
76785;SHT30;66893;44.316;0.092;2023-09-18T09:31:55;24.62;61.06
76785;SHT30;66893;44.316;0.092;2023-09-18T09:34:25;24.64;60.80
76785;SHT30;66893;44.316;0.092;2023-09-18T09:36:55;24.70;60.68
76785;SHT30;66893;44.316;0.092;2023-09-18T09:39:21;24.76;60.40
76785;SHT30;66893;44.316;0.092;2023-09-18T09:41:51;24.81;60.06
76785;SHT30;66893;44.316;0.092;2023-09-18T09:44:17;24.86;59.83
76785;SHT30;66893;44.316;0.092;2023-09-18T09:46:49;24.95;59.85
76785;SHT30;66893;44.316;0.092;2023-09-18T09:49:15;25.04;59.88
76785;SHT30;66893;44.316;0.092;2023-09-18T09:51:41;25.03;59.33
76785;SHT30;66893;44.316;0.092;2023-09-18T09:54:07;25.07;59.20
76785;SHT30;66893;44.316;0.092;2023-09-18T09:56:47;25.10;59.29
76785;SHT30;66893;44.316;0.092;2023-09-18T09:59:17;25.11;59.08
76785;SHT30;66893;44.316;0.092;2023-09-18T10:01:47;25.11;58.11
76785;SHT30;66893;44.316;0.092;2023-09-18T10:04:15;25.15;58.17
76785;SHT30;66893;44.316;0.092;2023-09-18T10:06:50;25.19;57.94
76785;SHT30;66893;44.316;0.092;2023-09-18T10:09:17;25.26;57.60
76785;SHT30;66893;44.316;0.092;2023-09-18T10:11:48;25.34;57.31
76785;SHT30;66893;44.316;0.092;2023-09-18T10:14:16;25.39;56.93
76785;SHT30;66893;44.316;0.092;2023-09-18T10:16:49;25.47;56.76
76785;SHT30;66893;44.316;0.092;2023-09-18T10:19:30;25.56;56.50
76785;SHT30;66893;44.316;0.092;2023-09-18T10:22:04;25.63;56.15
76785;SHT30;66893;44.316;0.092;2023-09-18T10:24:35;25.69;56.28
76785;SHT30;66893;44.316;0.092;2023-09-18T10:27:05;25.77;56.26
76785;SHT30;66893;44.316;0.092;2023-09-18T10:29:33;25.84;56.06
76785;SHT30;66893;44.316;0.092;2023-09-18T10:32:02;25.91;55.82
76785;SHT30;66893;44.316;0.092;2023-09-18T10:34:29;25.98;55.02
76785;SHT30;66893;44.316;0.092;2023-09-18T10:36:56;26.02;54.73
76785;SHT30;66893;44.316;0.092;2023-09-18T10:39:26;26.08;53.45
76785;SHT30;66893;44.316;0.092;2023-09-18T10:41:53;26.13;54.23
76785;SHT30;66893;44.316;0.092;2023-09-18T10:44:19;26.20;53.73
76785;SHT30;66893;44.316;0.092;2023-09-18T10:46:49;26.25;53.99
76785;SHT30;66893;44.316;0.092;2023-09-18T10:49:15;26.29;53.25
76785;SHT30;66893;44.316;0.092;2023-09-18T10:51:41;26.38;53.00
76785;SHT30;66893;44.316;0.092;2023-09-18T10:54:11;26.45;52.36
76785;SHT30;66893;44.316;0.092;2023-09-18T10:56:43;26.49;52.72
76785;SHT30;66893;44.316;0.092;2023-09-18T10:59:09;26.53;52.38
76785;SHT30;66893;44.316;0.092;2023-09-18T11:01:35;26.53;51.61
76785;SHT30;66893;44.316;0.092;2023-09-18T11:04:04;26.55;51.55
76785;SHT30;66893;44.316;0.092;2023-09-18T11:09:25;26.63;51.41
76785;SHT30;66893;44.316;0.092;2023-09-18T11:11:56;26.68;51.14
76785;SHT30;66893;44.316;0.092;2023-09-18T11:14:50;26.80;51.11
76785;SHT30;66893;44.316;0.092;2023-09-18T11:17:40;26.94;51.52
76785;SHT30;66893;44.316;0.092;2023-09-18T11:20:16;27.06;51.01
76785;SHT30;66893;44.316;0.092;2023-09-18T11:25:30;27.21;50.02
76785;SHT30;66893;44.316;0.092;2023-09-18T11:27:56;27.31;50.42
76785;SHT30;66893;44.316;0.092;2023-09-18T11:30:22;27.41;50.06
76785;SHT30;66893;44.316;0.092;2023-09-18T11:32:51;27.49;49.87
76785;SHT30;66893;44.316;0.092;2023-09-18T11:35:18;27.52;49.23
76785;SHT30;66893;44.316;0.092;2023-09-18T11:37:44;27.54;49.93
76785;SHT30;66893;44.316;0.092;2023-09-18T11:40:29;27.54;49.59
76785;SHT30;66893;44.316;0.092;2023-09-18T11:43:27;27.54;49.76
76785;SHT30;66893;44.316;0.092;2023-09-18T11:45:57;27.61;48.86
76785;SHT30;66893;44.316;0.092;2023-09-18T11:48:24;27.65;49.45
76785;SHT30;66893;44.316;0.092;2023-09-18T11:50:53;27.65;49.24
76785;SHT30;66893;44.316;0.092;2023-09-18T11:53:20;27.65;49.23
76785;SHT30;66893;44.316;0.092;2023-09-18T11:55:46;27.63;49.24
76785;SHT30;66893;44.316;0.092;2023-09-18T11:58:12;27.59;49.06
76785;SHT30;66893;44.316;0.092;2023-09-18T12:00:38;27.63;48.50
76785;SHT30;66893;44.316;0.092;2023-09-18T12:03:23;27.65;48.95
76785;SHT30;66893;44.316;0.092;2023-09-18T12:06:02;27.72;48.57
76785;SHT30;66893;44.316;0.092;2023-09-18T12:08:32;27.70;48.38
76785;SHT30;66893;44.316;0.092;2023-09-18T12:10:58;27.83;47.91
76785;SHT30;66893;44.316;0.092;2023-09-18T12:13:27;27.92;48.10
76785;SHT30;66893;44.316;0.092;2023-09-18T12:15:57;28.00;47.55
76785;SHT30;66893;44.316;0.092;2023-09-18T12:18:24;28.07;46.49
76785;SHT30;66893;44.316;0.092;2023-09-18T12:20:50;28.10;47.59
76785;SHT30;66893;44.316;0.092;2023-09-18T12:23:17;28.16;47.57
76785;SHT30;66893;44.316;0.092;2023-09-18T12:25:48;28.24;46.70
76785;SHT30;66893;44.316;0.092;2023-09-18T12:28:14;28.34;47.17
76785;SHT30;66893;44.316;0.092;2023-09-18T12:30:42;28.45;46.34
76785;SHT30;66893;44.316;0.092;2023-09-18T12:33:07;28.49;45.73
76785;SHT30;66893;44.316;0.092;2023-09-18T12:35:33;28.55;45.95
76785;SHT30;66893;44.316;0.092;2023-09-18T12:37:59;28.59;45.66
76785;SHT30;66893;44.316;0.092;2023-09-18T12:40:31;28.66;45.66
76785;SHT30;66893;44.316;0.092;2023-09-18T12:42:59;28.73;45.82
76785;SHT30;66893;44.316;0.092;2023-09-18T12:45:26;28.75;46.47
76785;SHT30;66893;44.316;0.092;2023-09-18T12:47:53;28.75;46.83
76785;SHT30;66893;44.316;0.092;2023-09-18T12:50:19;28.73;46.90
76785;SHT30;66893;44.316;0.092;2023-09-18T12:52:44;28.71;47.32
76785;SHT30;66893;44.316;0.092;2023-09-18T12:55:30;28.66;47.69
76785;SHT30;66893;44.316;0.092;2023-09-18T12:57:55;28.69;48.81
76785;SHT30;66893;44.316;0.092;2023-09-18T13:00:22;28.75;49.19
76785;SHT30;66893;44.316;0.092;2023-09-18T13:02:49;28.75;49.70
76785;SHT30;66893;44.316;0.092;2023-09-18T13:05:20;28.73;49.80
76785;SHT30;66893;44.316;0.092;2023-09-18T13:07:46;28.75;50.14
76785;SHT30;66893;44.316;0.092;2023-09-18T13:10:13;28.80;50.31
76785;SHT30;66893;44.316;0.092;2023-09-18T13:12:48;28.78;50.19
76785;SHT30;66893;44.316;0.092;2023-09-18T13:15:27;28.78;49.95
76785;SHT30;66893;44.316;0.092;2023-09-18T13:17:56;28.73;50.03
76785;SHT30;66893;44.316;0.092;2023-09-18T13:20:26;28.76;49.89
76785;SHT30;66893;44.316;0.092;2023-09-18T13:22:55;28.69;49.71
76785;SHT30;66893;44.316;0.092;2023-09-18T13:25:25;28.62;49.94
76785;SHT30;66893;44.316;0.092;2023-09-18T13:27:52;28.56;49.97
76785;SHT30;66893;44.316;0.092;2023-09-18T13:30:18;28.43;49.76
76785;SHT30;66893;44.316;0.092;2023-09-18T13:32:46;28.34;50.16
76785;SHT30;66893;44.316;0.092;2023-09-18T13:35:16;28.27;50.10
76785;SHT30;66893;44.316;0.092;2023-09-18T13:37:42;28.21;50.24
76785;SHT30;66893;44.316;0.092;2023-09-18T13:40:08;28.17;50.51
76785;SHT30;66893;44.316;0.092;2023-09-18T13:42:37;28.11;50.75
76785;SHT30;66893;44.316;0.092;2023-09-18T13:45:04;28.14;51.00
76785;SHT30;66893;44.316;0.092;2023-09-18T13:47:31;28.20;51.14
76785;SHT30;66893;44.316;0.092;2023-09-18T13:49:57;28.30;50.97
76785;SHT30;66893;44.316;0.092;2023-09-18T13:52:32;28.41;50.87
76785;SHT30;66893;44.316;0.092;2023-09-18T13:54:57;28.51;50.68
76785;SHT30;66893;44.316;0.092;2023-09-18T13:57:23;28.65;50.57
76785;SHT30;66893;44.316;0.092;2023-09-18T13:59:51;28.79;50.51
76785;SHT30;66893;44.316;0.092;2023-09-18T14:02:17;28.92;50.16
76785;SHT30;66893;44.316;0.092;2023-09-18T14:04:43;29.07;50.00
76785;SHT30;66893;44.316;0.092;2023-09-18T14:07:10;29.34;49.85
76785;SHT30;66893;44.316;0.092;2023-09-18T14:09:36;29.76;49.64
76785;SHT30;66893;44.316;0.092;2023-09-18T14:12:02;30.34;48.77
76785;SHT30;66893;44.316;0.092;2023-09-18T14:14:28;30.81;47.99
76785;SHT30;66893;44.316;0.092;2023-09-18T14:16:54;31.40;47.29
76785;SHT30;66893;44.316;0.092;2023-09-18T14:19:20;32.18;45.74
76785;SHT30;66893;44.316;0.092;2023-09-18T14:21:46;32.37;45.25
76785;SHT30;66893;44.316;0.092;2023-09-18T14:24:11;32.67;44.72
76785;SHT30;66893;44.316;0.092;2023-09-18T14:26:38;33.15;42.11
76785;SHT30;66893;44.316;0.092;2023-09-18T14:29:10;32.98;43.36
76785;SHT30;66893;44.316;0.092;2023-09-18T14:31:37;32.87;43.57
76785;SHT30;66893;44.316;0.092;2023-09-18T14:34:03;33.19;43.28
76785;SHT30;66893;44.316;0.092;2023-09-18T14:36:34;33.55;42.77
76785;SHT30;66893;44.316;0.092;2023-09-18T14:39:00;34.01;42.10
76785;SHT30;66893;44.316;0.092;2023-09-18T14:41:26;34.69;41.54
76785;SHT30;66893;44.316;0.092;2023-09-18T14:43:52;35.49;40.60
76785;SHT30;66893;44.316;0.092;2023-09-18T14:46:18;36.17;38.70
76785;SHT30;66893;44.316;0.092;2023-09-18T14:48:43;36.48;38.43
76785;SHT30;66893;44.316;0.092;2023-09-18T14:51:09;35.94;38.85
76785;SHT30;66893;44.316;0.092;2023-09-18T14:53:34;35.11;39.58
76785;SHT30;66893;44.316;0.092;2023-09-18T14:56:00;34.28;40.48
76785;SHT30;66893;44.316;0.092;2023-09-18T14:58:26;33.52;41.84
76785;SHT30;66893;44.316;0.092;2023-09-18T15:00:53;32.92;43.19
76785;SHT30;66893;44.316;0.092;2023-09-18T15:03:18;32.71;43.84
76785;SHT30;66893;44.316;0.092;2023-09-18T15:05:44;33.09;44.02
76785;SHT30;66893;44.316;0.092;2023-09-18T15:08:10;33.76;43.66
76785;SHT30;66893;44.316;0.092;2023-09-18T15:10:37;34.52;43.03
76785;SHT30;66893;44.316;0.092;2023-09-18T15:13:02;34.87;42.52
76785;SHT30;66893;44.316;0.092;2023-09-18T15:15:28;34.39;42.93
76785;SHT30;66893;44.316;0.092;2023-09-18T15:17:53;34.27;43.36
76785;SHT30;66893;44.316;0.092;2023-09-18T15:20:20;34.01;43.96
76785;SHT30;66893;44.316;0.092;2023-09-18T15:22:49;33.86;44.62
76785;SHT30;66893;44.316;0.092;2023-09-18T15:25:15;34.12;44.68
76785;SHT30;66893;44.316;0.092;2023-09-18T15:27:41;34.90;43.56
76785;SHT30;66893;44.316;0.092;2023-09-18T15:30:07;35.78;42.51
76785;SHT30;66893;44.316;0.092;2023-09-18T15:32:52;36.70;41.17
76785;SHT30;66893;44.316;0.092;2023-09-18T15:35:22;37.43;40.19
76785;SHT30;66893;44.316;0.092;2023-09-18T15:37:49;38.06;39.22
76785;SHT30;66893;44.316;0.092;2023-09-18T15:40:15;38.47;38.70
76785;SHT30;66893;44.316;0.092;2023-09-18T15:42:43;38.94;38.18
76785;SHT30;66893;44.316;0.092;2023-09-18T15:45:09;39.25;37.88